Time,TemperatureF,DewpointF,PressureIn,WindDirection,WindDirectionDegrees,WindSpeedMPH,WindSpeedGustMPH,Humidity,HourlyPrecipIn,Conditions,Clouds,dailyrainin,SoftwareType,DateUTC
2013-07-14 00:00:00,64.7,62.3,30.18,SE,132,0.0,0.0,92,0.00,,,0.00,Wunderground v.1.15,2013-07-14 05:00:00,
2013-07-14 00:05:00,65.4,62.7,30.19,SSE,168,0.0,0.0,91,0.00,,,0.00,Wunderground v.1.15,2013-07-14 05:05:00,
2013-07-14 00:15:00,66.4,62.7,30.19,SSE,168,0.0,0.0,88,0.00,,,0.00,Wunderground v.1.15,2013-07-14 05:15:00,
2013-07-14 00:20:00,66.5,62.8,30.18,SE,125,0.0,1.0,88,0.00,,,0.00,Wunderground v.1.15,2013-07-14 05:20:00,
2013-07-14 00:25:00,66.6,62.6,30.19,ESE,120,0.0,1.0,87,0.00,,,0.00,Wunderground v.1.15,2013-07-14 05:25:00,
2013-07-14 00:30:00,66.6,62.6,30.19,ESE,119,0.0,0.0,87,0.00,,,0.00,Wunderground v.1.15,2013-07-14 05:30:00,
2013-07-14 00:35:00,66.7,62.7,30.19,ESE,120,0.0,0.0,87,0.00,,,0.00,Wunderground v.1.15,2013-07-14 05:35:00,
2013-07-14 00:44:00,66.7,62.4,30.19,ESE,120,0.0,0.0,86,0.00,,,0.00,Wunderground v.1.15,2013-07-14 05:44:00,
2013-07-14 00:49:00,66.6,62.3,30.19,ESE,119,0.0,0.0,86,0.00,,,0.00,Wunderground v.1.15,2013-07-14 05:49:00,
2013-07-14 00:55:00,66.6,62.3,30.19,ESE,105,0.0,0.0,86,0.00,,,0.00,Wunderground v.1.15,2013-07-14 05:55:00,
2013-07-14 01:00:00,66.6,62.3,30.19,ESE,105,0.0,0.0,86,0.00,,,0.00,Wunderground v.1.15,2013-07-14 06:00:00,
2013-07-14 01:05:00,66.6,62.3,30.19,ESE,105,0.0,0.0,86,0.00,,,0.00,Wunderground v.1.15,2013-07-14 06:05:00,
2013-07-14 01:15:00,66.2,61.9,30.19,ESE,105,0.0,0.0,86,0.00,,,0.00,Wunderground v.1.15,2013-07-14 06:15:00,
2013-07-14 01:20:00,66.0,61.7,30.19,ESE,105,0.0,0.0,86,0.00,,,0.00,Wunderground v.1.15,2013-07-14 06:20:00,
2013-07-14 01:30:00,65.6,61.6,30.20,ESE,105,0.0,0.0,87,0.00,,,0.00,Wunderground v.1.15,2013-07-14 06:30:00,
2013-07-14 01:40:00,65.0,61.4,30.20,ESE,105,0.0,0.0,88,0.00,,,0.00,Wunderground v.1.15,2013-07-14 06:40:00,
2013-07-14 01:45:00,64.7,61.4,30.20,ESE,105,0.0,0.0,89,0.00,,,0.00,Wunderground v.1.15,2013-07-14 06:45:00,
2013-07-14 01:50:00,64.5,61.2,30.20,ESE,105,0.0,0.0,89,0.00,,,0.00,Wunderground v.1.15,2013-07-14 06:50:00,
2013-07-14 01:55:00,64.3,61.0,30.20,ESE,105,0.0,0.0,89,0.00,,,0.00,Wunderground v.1.15,2013-07-14 06:55:00,
2013-07-14 02:00:00,64.1,60.8,30.20,ESE,105,0.0,0.0,89,0.00,,,0.00,Wunderground v.1.15,2013-07-14 07:00:00,
2013-07-14 02:05:00,63.9,60.9,30.20,ESE,105,0.0,0.0,90,0.00,,,0.00,Wunderground v.1.15,2013-07-14 07:05:00,
2013-07-14 02:15:00,63.6,60.6,30.20,ESE,105,0.0,0.0,90,0.00,,,0.00,Wunderground v.1.15,2013-07-14 07:15:00,
2013-07-14 02:20:00,63.5,60.8,30.20,ESE,105,0.0,0.0,91,0.00,,,0.00,Wunderground v.1.15,2013-07-14 07:20:00,
2013-07-14 02:25:00,63.4,60.7,30.20,ESE,105,0.0,0.0,91,0.00,,,0.00,Wunderground v.1.15,2013-07-14 07:25:00,
2013-07-14 02:30:00,63.3,60.6,30.20,ESE,105,0.0,0.0,91,0.00,,,0.00,Wunderground v.1.15,2013-07-14 07:30:00,
2013-07-14 02:40:00,63.2,60.5,30.20,ESE,105,0.0,0.0,91,0.00,,,0.00,Wunderground v.1.15,2013-07-14 07:40:00,
2013-07-14 02:45:00,63.2,60.8,30.20,ESE,105,0.0,0.0,92,0.00,,,0.00,Wunderground v.1.15,2013-07-14 07:45:00,
2013-07-14 02:50:00,63.1,60.7,30.20,ESE,105,0.0,0.0,92,0.00,,,0.00,Wunderground v.1.15,2013-07-14 07:50:00,
2013-07-14 02:55:00,63.1,60.7,30.21,ESE,105,0.0,0.0,92,0.00,,,0.00,Wunderground v.1.15,2013-07-14 07:55:00,
2013-07-14 03:00:00,63.0,60.6,30.20,ESE,105,0.0,0.0,92,0.00,,,0.00,Wunderground v.1.15,2013-07-14 08:00:00,
2013-07-14 03:05:00,62.9,60.5,30.20,ESE,105,0.0,0.0,92,0.00,,,0.00,Wunderground v.1.15,2013-07-14 08:05:00,
2013-07-14 03:15:00,62.8,60.4,30.20,ESE,105,0.0,0.0,92,0.00,,,0.00,Wunderground v.1.15,2013-07-14 08:15:00,
2013-07-14 03:20:00,62.8,60.4,30.20,ESE,105,0.0,0.0,92,0.00,,,0.00,Wunderground v.1.15,2013-07-14 08:20:00,
2013-07-14 03:30:00,62.8,60.4,30.20,ESE,105,0.0,0.0,92,0.00,,,0.00,Wunderground v.1.15,2013-07-14 08:30:00,
2013-07-14 03:35:00,62.9,60.5,30.20,ESE,105,0.0,0.0,92,0.00,,,0.00,Wunderground v.1.15,2013-07-14 08:35:00,
2013-07-14 03:45:00,63.4,61.0,30.20,ESE,105,0.0,0.0,92,0.00,,,0.00,Wunderground v.1.15,2013-07-14 08:45:00,
2013-07-14 03:50:00,63.6,61.2,30.20,ESE,105,0.0,0.0,92,0.00,,,0.00,Wunderground v.1.15,2013-07-14 08:50:00,
2013-07-14 04:00:00,63.6,60.9,30.20,ESE,105,0.0,0.0,91,0.00,,,0.00,Wunderground v.1.15,2013-07-14 09:00:00,
2013-07-14 04:05:00,63.6,60.9,30.20,ESE,105,0.0,0.0,91,0.00,,,0.00,Wunderground v.1.15,2013-07-14 09:05:00,
2013-07-14 04:15:00,63.5,60.8,30.20,ESE,105,0.0,0.0,91,0.00,,,0.00,Wunderground v.1.15,2013-07-14 09:15:00,
2013-07-14 04:25:00,63.3,60.6,30.20,ESE,105,0.0,0.0,91,0.00,,,0.00,Wunderground v.1.15,2013-07-14 09:25:00,
2013-07-14 04:30:00,63.2,60.5,30.20,ESE,105,0.0,0.0,91,0.00,,,0.00,Wunderground v.1.15,2013-07-14 09:30:00,
2013-07-14 04:35:00,63.2,60.5,30.20,ESE,105,0.0,0.0,91,0.00,,,0.00,Wunderground v.1.15,2013-07-14 09:35:00,
2013-07-14 04:40:00,63.2,60.5,30.20,ESE,105,0.0,0.0,91,0.00,,,0.00,Wunderground v.1.15,2013-07-14 09:40:00,
2013-07-14 04:50:00,63.2,60.5,30.20,ESE,105,0.0,0.0,91,0.00,,,0.00,Wunderground v.1.15,2013-07-14 09:50:00,
2013-07-14 04:55:00,63.2,60.5,30.20,ESE,105,0.0,0.0,91,0.00,,,0.00,Wunderground v.1.15,2013-07-14 09:55:00,
2013-07-14 05:00:00,63.2,60.5,30.20,ESE,105,0.0,0.0,91,0.00,,,0.00,Wunderground v.1.15,2013-07-14 10:00:00,
2013-07-14 05:05:00,63.2,60.5,30.20,ESE,105,0.0,0.0,91,0.00,,,0.00,Wunderground v.1.15,2013-07-14 10:05:00,
2013-07-14 05:15:00,63.0,60.3,30.20,ESE,105,0.0,0.0,91,0.00,,,0.00,Wunderground v.1.15,2013-07-14 10:15:00,
2013-07-14 05:20:00,63.0,60.3,30.20,ESE,105,0.0,0.0,91,0.00,,,0.00,Wunderground v.1.15,2013-07-14 10:20:00,
2013-07-14 05:25:00,62.9,60.2,30.20,ESE,105,0.0,0.0,91,0.00,,,0.00,Wunderground v.1.15,2013-07-14 10:25:00,
2013-07-14 05:35:00,62.8,60.1,30.20,ESE,105,0.0,0.0,91,0.00,,,0.00,Wunderground v.1.15,2013-07-14 10:35:00,
2013-07-14 05:40:00,62.8,60.1,30.20,ESE,105,0.0,0.0,91,0.00,,,0.00,Wunderground v.1.15,2013-07-14 10:40:00,
2013-07-14 05:45:00,62.7,60.0,30.19,ESE,105,0.0,0.0,91,0.00,,,0.00,Wunderground v.1.15,2013-07-14 10:45:00,
2013-07-14 05:50:00,62.6,59.9,30.19,ESE,105,0.0,0.0,91,0.00,,,0.00,Wunderground v.1.15,2013-07-14 10:50:00,
2013-07-14 05:55:00,62.5,59.8,30.19,ESE,105,0.0,0.0,91,0.00,,,0.00,Wunderground v.1.15,2013-07-14 10:55:00,
2013-07-14 06:00:00,62.5,59.8,30.19,ESE,105,0.0,0.0,91,0.00,,,0.00,Wunderground v.1.15,2013-07-14 11:00:00,
2013-07-14 06:05:00,62.5,59.8,30.19,ESE,105,0.0,0.0,91,0.00,,,0.00,Wunderground v.1.15,2013-07-14 11:05:00,
2013-07-14 06:15:00,62.4,60.0,30.19,ESE,105,0.0,0.0,92,0.00,,,0.00,Wunderground v.1.15,2013-07-14 11:15:00,
2013-07-14 06:20:00,62.5,60.1,30.19,East,101,0.0,0.0,92,0.00,,,0.00,Wunderground v.1.15,2013-07-14 11:20:00,
2013-07-14 06:25:00,62.6,60.2,30.19,East,101,0.0,0.0,92,0.00,,,0.00,Wunderground v.1.15,2013-07-14 11:25:00,
2013-07-14 06:35:00,62.9,60.5,30.19,East,101,0.0,0.0,92,0.00,,,0.00,Wunderground v.1.15,2013-07-14 11:35:00,
2013-07-14 06:40:00,63.1,60.7,30.19,East,101,0.0,0.0,92,0.00,,,0.00,Wunderground v.1.15,2013-07-14 11:40:00,
2013-07-14 06:45:00,63.4,61.0,30.19,East,101,0.0,0.0,92,0.00,,,0.00,Wunderground v.1.15,2013-07-14 11:45:00,
2013-07-14 06:50:00,63.6,61.2,30.19,East,101,0.0,0.0,92,0.00,,,0.00,Wunderground v.1.15,2013-07-14 11:50:00,
2013-07-14 06:55:00,64.0,61.9,30.19,East,101,0.0,0.0,93,0.00,,,0.00,Wunderground v.1.15,2013-07-14 11:55:00,
2013-07-14 07:00:00,64.5,62.4,30.19,East,101,0.0,0.0,93,0.00,,,0.00,Wunderground v.1.15,2013-07-14 12:00:00,
2013-07-14 07:05:00,65.0,62.6,30.19,East,100,0.0,0.0,92,0.00,,,0.00,Wunderground v.1.15,2013-07-14 12:05:00,
2013-07-14 07:15:00,65.9,63.5,30.19,ESE,109,0.0,0.0,92,0.00,,,0.00,Wunderground v.1.15,2013-07-14 12:15:00,
2013-07-14 07:20:00,66.3,63.9,30.20,ESE,111,0.0,0.0,92,0.00,,,0.00,Wunderground v.1.15,2013-07-14 12:20:00,
2013-07-14 07:30:00,67.2,64.8,30.20,SE,136,0.0,0.0,92,0.00,,,0.00,Wunderground v.1.15,2013-07-14 12:30:00,
2013-07-14 07:35:00,67.7,65.0,30.20,South,174,0.0,0.0,91,0.00,,,0.00,Wunderground v.1.15,2013-07-14 12:35:00,
2013-07-14 07:40:00,68.3,65.6,30.20,South,169,0.0,0.0,91,0.00,,,0.00,Wunderground v.1.15,2013-07-14 12:40:00,
2013-07-14 07:50:00,69.9,66.8,30.20,South,169,0.0,0.0,90,0.00,,,0.00,Wunderground v.1.15,2013-07-14 12:50:00,
2013-07-14 07:55:00,70.6,67.5,30.21,South,169,0.0,0.0,90,0.00,,,0.00,Wunderground v.1.15,2013-07-14 12:55:00,
2013-07-14 08:00:00,71.3,67.6,30.21,SSE,165,0.0,0.0,88,0.00,,,0.00,Wunderground v.1.15,2013-07-14 13:00:00,
2013-07-14 08:05:00,72.0,68.2,30.21,SSE,165,0.0,0.0,88,0.00,,,0.00,Wunderground v.1.15,2013-07-14 13:05:00,
2013-07-14 08:15:00,72.7,68.3,30.22,SSW,194,0.0,0.0,86,0.00,,,0.00,Wunderground v.1.15,2013-07-14 13:15:00,
2013-07-14 08:20:00,73.0,68.6,30.23,SSW,194,0.0,0.0,86,0.00,,,0.00,Wunderground v.1.15,2013-07-14 13:20:00,
2013-07-14 08:25:00,73.4,68.6,30.23,East,96,0.0,0.0,85,0.00,,,0.00,Wunderground v.1.15,2013-07-14 13:25:00,
2013-07-14 08:30:00,74.0,69.2,30.23,ESE,102,0.0,0.0,85,0.00,,,0.00,Wunderground v.1.15,2013-07-14 13:30:00,
2013-07-14 08:40:00,74.2,68.7,30.23,South,175,0.0,0.0,83,0.00,,,0.00,Wunderground v.1.15,2013-07-14 13:40:00,
2013-07-14 08:45:00,74.2,68.7,30.23,SE,146,0.0,2.0,83,0.00,,,0.00,Wunderground v.1.15,2013-07-14 13:45:00,
2013-07-14 08:55:00,74.8,69.3,30.23,SSE,160,0.0,0.0,83,0.00,,,0.00,Wunderground v.1.15,2013-07-14 13:55:00,
2013-07-14 09:00:00,75.0,69.5,30.23,ESE,113,0.0,4.0,83,0.00,,,0.00,Wunderground v.1.15,2013-07-14 14:00:00,
2013-07-14 09:05:00,75.5,69.3,30.23,SSE,155,0.0,4.0,81,0.00,,,0.00,Wunderground v.1.15,2013-07-14 14:05:00,
2013-07-14 09:15:00,75.8,69.9,30.23,ESE,108,0.0,0.0,82,0.00,,,0.00,Wunderground v.1.15,2013-07-14 14:15:00,
2013-07-14 09:25:00,76.0,69.7,30.23,East,86,1.0,1.0,81,0.00,,,0.00,Wunderground v.1.15,2013-07-14 14:25:00,
2013-07-14 09:30:00,76.3,70.0,30.23,ESE,113,1.0,1.0,81,0.00,,,0.00,Wunderground v.1.15,2013-07-14 14:30:00,
2013-07-14 09:35:00,76.8,70.5,30.23,East,86,1.0,1.0,81,0.00,,,0.00,Wunderground v.1.15,2013-07-14 14:35:00,
2013-07-14 09:40:00,76.8,70.2,30.23,SSE,168,0.0,0.0,80,0.00,,,0.00,Wunderground v.1.15,2013-07-14 14:40:00,
2013-07-14 09:45:00,76.8,70.2,30.23,SSE,153,0.0,2.0,80,0.00,,,0.00,Wunderground v.1.15,2013-07-14 14:45:00,
2013-07-14 09:50:00,76.8,70.2,30.23,SSE,165,0.0,0.0,80,0.00,,,0.00,Wunderground v.1.15,2013-07-14 14:50:00,
2013-07-14 10:00:00,77.2,69.8,30.23,SSE,150,0.0,1.0,78,0.00,,,0.00,Wunderground v.1.15,2013-07-14 15:00:00,
2013-07-14 10:05:00,77.5,70.1,30.23,South,169,0.0,1.0,78,0.00,,,0.00,Wunderground v.1.15,2013-07-14 15:05:00,
2013-07-14 10:15:00,78.0,69.4,30.23,SSE,163,0.0,0.0,75,0.00,,,0.00,Wunderground v.1.15,2013-07-14 15:15:00,
2013-07-14 10:20:00,78.4,69.4,30.24,South,180,0.0,0.0,74,0.00,,,0.00,Wunderground v.1.15,2013-07-14 15:20:00,
2013-07-14 10:25:00,78.6,69.6,30.23,SE,128,0.0,0.0,74,0.00,,,0.00,Wunderground v.1.15,2013-07-14 15:25:00,
2013-07-14 10:30:00,78.9,69.9,30.23,SE,136,0.0,0.0,74,0.00,,,0.00,Wunderground v.1.15,2013-07-14 15:30:00,
2013-07-14 10:35:00,79.1,69.7,30.23,SE,138,0.0,0.0,73,0.00,,,0.00,Wunderground v.1.15,2013-07-14 15:35:00,
2013-07-14 10:40:00,79.2,70.6,30.23,SE,142,0.0,0.0,75,0.00,,,0.00,Wunderground v.1.15,2013-07-14 15:40:00,
2013-07-14 10:45:00,79.4,70.4,30.24,SE,144,0.0,0.0,74,0.00,,,0.00,Wunderground v.1.15,2013-07-14 15:45:00,
2013-07-14 10:55:00,79.2,69.0,30.24,SSE,167,0.0,0.0,71,0.00,,,0.00,Wunderground v.1.15,2013-07-14 15:55:00,
2013-07-14 11:05:00,79.7,69.0,30.24,SSE,165,0.0,0.0,70,0.00,,,0.00,Wunderground v.1.15,2013-07-14 16:05:00,
2013-07-14 11:15:00,79.9,68.8,30.24,South,169,0.0,1.0,69,0.00,,,0.00,Wunderground v.1.15,2013-07-14 16:15:00,
2013-07-14 11:20:00,80.1,70.7,30.24,ESE,118,0.0,0.0,73,0.00,,,0.00,Wunderground v.1.15,2013-07-14 16:20:00,
2013-07-14 11:25:00,80.5,71.0,30.24,SE,128,0.0,1.0,73,0.00,,,0.00,Wunderground v.1.15,2013-07-14 16:25:00,
2013-07-14 11:30:00,80.6,70.3,30.24,SE,132,0.0,0.0,71,0.00,,,0.00,Wunderground v.1.15,2013-07-14 16:30:00,
2013-07-14 11:40:00,80.8,70.1,30.25,East,83,0.0,0.0,70,0.00,,,0.00,Wunderground v.1.15,2013-07-14 16:40:00,
2013-07-14 11:45:00,80.9,70.6,30.25,SSE,157,1.0,1.0,71,0.00,,,0.00,Wunderground v.1.15,2013-07-14 16:45:00,
2013-07-14 11:50:00,81.0,70.3,30.25,South,187,0.0,0.0,70,0.00,,,0.00,Wunderground v.1.15,2013-07-14 16:50:00,
2013-07-14 11:55:00,81.7,72.6,30.24,ESE,107,0.0,0.0,74,0.00,,,0.00,Wunderground v.1.15,2013-07-14 16:55:00,
2013-07-14 12:00:00,81.5,69.9,30.24,South,176,1.0,1.0,68,0.00,,,0.00,Wunderground v.1.15,2013-07-14 17:00:00,
2013-07-14 12:05:00,81.1,70.4,30.24,SE,127,0.0,1.0,70,0.00,,,0.00,Wunderground v.1.15,2013-07-14 17:05:00,
2013-07-14 12:15:00,80.9,70.6,30.24,South,178,0.0,0.0,71,0.00,,,0.00,Wunderground v.1.15,2013-07-14 17:15:00,
2013-07-14 12:20:00,81.5,72.0,30.24,SE,136,0.0,0.0,73,0.00,,,0.00,Wunderground v.1.15,2013-07-14 17:20:00,
2013-07-14 12:25:00,81.5,70.3,30.24,SSE,155,0.0,0.0,69,0.00,,,0.00,Wunderground v.1.15,2013-07-14 17:25:00,
2013-07-14 12:30:00,81.4,71.9,30.25,SE,136,0.0,0.0,73,0.00,,,0.00,Wunderground v.1.15,2013-07-14 17:30:00,
2013-07-14 12:35:00,81.5,71.6,30.25,ESE,112,0.0,0.0,72,0.00,,,0.00,Wunderground v.1.15,2013-07-14 17:35:00,
2013-07-14 12:45:00,81.8,71.1,30.24,East,88,1.0,1.0,70,0.00,,,0.00,Wunderground v.1.15,2013-07-14 17:45:00,
2013-07-14 12:55:00,82.9,71.7,30.24,East,101,0.0,1.0,69,0.00,,,0.00,Wunderground v.1.15,2013-07-14 17:55:00,
2013-07-14 13:00:00,82.3,71.1,30.24,SSE,164,0.0,0.0,69,0.00,,,0.00,Wunderground v.1.15,2013-07-14 18:00:00,
2013-07-14 13:05:00,82.1,72.6,30.24,East,80,0.0,0.0,73,0.00,,,0.00,Wunderground v.1.15,2013-07-14 18:05:00,
2013-07-14 13:15:00,82.8,71.6,30.24,ESE,115,1.0,1.0,69,0.00,,,0.00,Wunderground v.1.15,2013-07-14 18:15:00,
2013-07-14 13:20:00,83.1,71.9,30.24,East,89,1.0,1.0,69,0.00,,,0.00,Wunderground v.1.15,2013-07-14 18:20:00,
2013-07-14 13:25:00,83.3,72.5,30.24,SSE,150,1.0,1.0,70,0.00,,,0.00,Wunderground v.1.15,2013-07-14 18:25:00,
2013-07-14 13:35:00,83.3,72.5,30.24,East,90,1.0,1.0,70,0.00,,,0.00,Wunderground v.1.15,2013-07-14 18:35:00,
2013-07-14 13:45:00,83.7,73.3,30.24,SE,136,0.0,0.0,71,0.00,,,0.00,Wunderground v.1.15,2013-07-14 18:45:00,
2013-07-14 13:50:00,84.1,72.8,30.24,SSE,162,0.0,0.0,69,0.00,,,0.00,Wunderground v.1.15,2013-07-14 18:50:00,
2013-07-14 13:55:00,83.7,72.0,30.23,SE,142,0.0,0.0,68,0.00,,,0.00,Wunderground v.1.15,2013-07-14 18:55:00,
2013-07-14 14:00:00,83.6,71.9,30.23,SE,143,0.0,2.0,68,0.00,,,0.00,Wunderground v.1.15,2013-07-14 19:00:00,
2013-07-14 14:05:00,83.3,72.5,30.23,SE,141,0.0,2.0,70,0.00,,,0.00,Wunderground v.1.15,2013-07-14 19:05:00,
2013-07-14 14:15:00,82.7,71.9,30.23,South,174,0.0,0.0,70,0.00,,,0.00,Wunderground v.1.15,2013-07-14 19:15:00,
2013-07-14 14:20:00,82.4,72.9,30.23,South,171,0.0,0.0,73,0.00,,,0.00,Wunderground v.1.15,2013-07-14 19:20:00,
2013-07-14 14:25:00,82.9,72.5,30.23,South,172,0.0,0.0,71,0.00,,,0.00,Wunderground v.1.15,2013-07-14 19:25:00,
2013-07-14 14:30:00,82.6,71.4,30.23,South,171,0.0,0.0,69,0.00,,,0.00,Wunderground v.1.15,2013-07-14 19:30:00,
2013-07-14 14:35:00,82.9,72.1,30.23,South,175,0.0,0.0,70,0.00,,,0.00,Wunderground v.1.15,2013-07-14 19:35:00,
2013-07-14 14:45:00,84.3,73.9,30.22,South,171,0.0,0.0,71,0.00,,,0.00,Wunderground v.1.15,2013-07-14 19:45:00,
2013-07-14 14:50:00,84.8,72.6,30.22,SE,128,0.0,0.0,67,0.00,,,0.00,Wunderground v.1.15,2013-07-14 19:50:00,
2013-07-14 14:55:00,84.1,72.0,30.22,East,97,1.0,1.0,67,0.00,,,0.00,Wunderground v.1.15,2013-07-14 19:55:00,
2013-07-14 15:00:00,83.7,72.9,30.22,South,169,1.0,1.0,70,0.00,,,0.00,Wunderground v.1.15,2013-07-14 20:00:00,
2013-07-14 15:05:00,83.6,72.8,30.22,SSE,163,1.0,1.0,70,0.00,,,0.00,Wunderground v.1.15,2013-07-14 20:05:00,
2013-07-14 15:15:00,83.8,72.1,30.22,South,175,1.0,1.0,68,0.00,,,0.00,Wunderground v.1.15,2013-07-14 20:15:00,
2013-07-14 15:25:00,83.7,72.0,30.21,SSE,164,1.0,1.0,68,0.00,,,0.00,Wunderground v.1.15,2013-07-14 20:25:00,
2013-07-14 15:30:00,83.9,72.2,30.21,South,169,0.0,0.0,68,0.00,,,0.00,Wunderground v.1.15,2013-07-14 20:30:00,
2013-07-14 15:35:00,83.9,72.6,30.21,ESE,121,0.0,0.0,69,0.00,,,0.00,Wunderground v.1.15,2013-07-14 20:35:00,
2013-07-14 15:40:00,84.3,73.0,30.22,SE,133,0.0,0.0,69,0.00,,,0.00,Wunderground v.1.15,2013-07-14 20:40:00,
2013-07-14 15:50:00,84.0,72.7,30.22,East,99,1.0,1.0,69,0.00,,,0.00,Wunderground v.1.15,2013-07-14 20:50:00,
2013-07-14 16:00:00,84.4,72.7,30.21,SSE,161,0.0,1.0,68,0.00,,,0.00,Wunderground v.1.15,2013-07-14 21:00:00,
2013-07-14 16:05:00,84.1,72.4,30.21,South,169,1.0,1.0,68,0.00,,,0.00,Wunderground v.1.15,2013-07-14 21:05:00,
2013-07-14 16:15:00,84.1,73.3,30.21,SE,126,0.0,4.0,70,0.00,,,0.00,Wunderground v.1.15,2013-07-14 21:15:00,
2013-07-14 16:20:00,84.5,74.1,30.21,East,92,1.0,1.0,71,0.00,,,0.00,Wunderground v.1.15,2013-07-14 21:20:00,
2013-07-14 16:25:00,84.5,74.5,30.21,ESE,122,0.0,1.0,72,0.00,,,0.00,Wunderground v.1.15,2013-07-14 21:25:00,
2013-07-14 16:35:00,84.1,72.4,30.21,South,188,1.0,1.0,68,0.00,,,0.00,Wunderground v.1.15,2013-07-14 21:35:00,
2013-07-14 16:40:00,84.3,72.6,30.21,SSE,164,1.0,1.0,68,0.00,,,0.00,Wunderground v.1.15,2013-07-14 21:40:00,
2013-07-14 16:50:00,84.9,74.0,30.21,ESE,109,0.0,1.0,70,0.00,,,0.00,Wunderground v.1.15,2013-07-14 21:50:00,
2013-07-14 16:55:00,84.5,72.3,30.20,South,186,0.0,5.0,67,0.00,,,0.00,Wunderground v.1.15,2013-07-14 21:55:00,
2013-07-14 17:00:00,84.5,72.8,30.20,South,180,1.0,1.0,68,0.00,,,0.00,Wunderground v.1.15,2013-07-14 22:00:00,
2013-07-14 17:05:00,84.4,73.1,30.20,South,180,1.0,1.0,69,0.00,,,0.00,Wunderground v.1.15,2013-07-14 22:05:00,
2013-07-14 17:15:00,83.8,73.4,30.21,East,91,0.0,1.0,71,0.00,,,0.00,Wunderground v.1.15,2013-07-14 22:15:00,
2013-07-14 17:20:00,83.7,72.4,30.20,ESE,108,0.0,1.0,69,0.00,,,0.00,Wunderground v.1.15,2013-07-14 22:20:00,
2013-07-14 17:25:00,84.1,73.3,30.20,South,176,0.0,1.0,70,0.00,,,0.00,Wunderground v.1.15,2013-07-14 22:25:00,
2013-07-14 17:30:00,84.0,71.4,30.21,SSE,167,1.0,1.0,66,0.00,,,0.00,Wunderground v.1.15,2013-07-14 22:30:00,
2013-07-14 17:40:00,83.9,72.2,30.20,SSE,156,0.0,0.0,68,0.00,,,0.00,Wunderground v.1.15,2013-07-14 22:40:00,
2013-07-14 17:45:00,83.8,71.7,30.20,SE,143,0.0,0.0,67,0.00,,,0.00,Wunderground v.1.15,2013-07-14 22:45:00,
2013-07-14 17:55:00,83.7,72.4,30.20,East,90,0.0,3.0,69,0.00,,,0.00,Wunderground v.1.15,2013-07-14 22:55:00,
2013-07-14 18:05:00,83.5,71.8,30.20,SSE,167,0.0,0.0,68,0.00,,,0.00,Wunderground v.1.15,2013-07-14 23:05:00,
2013-07-14 18:15:00,83.4,72.6,30.20,SSE,167,0.0,2.0,70,0.00,,,0.00,Wunderground v.1.15,2013-07-14 23:15:00,
2013-07-14 18:20:00,83.3,72.1,30.20,South,185,0.0,0.0,69,0.00,,,0.00,Wunderground v.1.15,2013-07-14 23:20:00,
2013-07-14 18:25:00,83.3,72.5,30.20,South,188,0.0,0.0,70,0.00,,,0.00,Wunderground v.1.15,2013-07-14 23:25:00,
2013-07-14 18:30:00,83.3,72.5,30.20,SSE,156,0.0,0.0,70,0.00,,,0.00,Wunderground v.1.15,2013-07-14 23:30:00,
2013-07-14 18:35:00,83.3,72.5,30.20,SSE,148,0.0,0.0,70,0.00,,,0.00,Wunderground v.1.15,2013-07-14 23:35:00,
2013-07-14 18:45:00,83.0,72.2,30.20,SE,146,0.0,0.0,70,0.00,,,0.00,Wunderground v.1.15,2013-07-14 23:45:00,
2013-07-14 18:50:00,82.9,72.1,30.20,SSE,147,0.0,0.0,70,0.00,,,0.00,Wunderground v.1.15,2013-07-14 23:50:00,
2013-07-14 18:55:00,82.8,72.4,30.20,SSE,148,0.0,0.0,71,0.00,,,0.00,Wunderground v.1.15,2013-07-14 23:55:00,
2013-07-14 19:00:00,82.7,72.7,30.20,SSE,153,0.0,0.0,72,0.00,,,0.00,Wunderground v.1.15,2013-07-15 00:00:00,
2013-07-14 19:05:00,82.6,72.7,30.20,SSE,152,0.0,0.0,72,0.00,,,0.00,Wunderground v.1.15,2013-07-15 00:05:00,
2013-07-14 19:15:00,82.5,73.0,30.20,SSE,153,0.0,0.0,73,0.00,,,0.00,Wunderground v.1.15,2013-07-15 00:15:00,
2013-07-14 19:20:00,82.3,72.8,30.20,SSE,152,0.0,0.0,73,0.00,,,0.00,Wunderground v.1.15,2013-07-15 00:20:00,
2013-07-14 19:25:00,82.1,73.0,30.20,SSE,153,0.0,0.0,74,0.00,,,0.00,Wunderground v.1.15,2013-07-15 00:25:00,
2013-07-14 19:30:00,81.8,73.1,30.20,SSE,152,0.0,0.0,75,0.00,,,0.00,Wunderground v.1.15,2013-07-15 00:30:00,
2013-07-14 19:35:00,81.6,72.9,30.20,SSE,153,0.0,0.0,75,0.00,,,0.00,Wunderground v.1.15,2013-07-15 00:35:00,
2013-07-14 19:40:00,81.5,73.2,30.21,SSE,152,0.0,0.0,76,0.00,,,0.00,Wunderground v.1.15,2013-07-15 00:40:00,
2013-07-14 19:45:00,81.2,72.9,30.21,SSE,152,0.0,0.0,76,0.00,,,0.00,Wunderground v.1.15,2013-07-15 00:45:00,
2013-07-14 19:55:00,80.7,73.2,30.21,SSE,152,0.0,0.0,78,0.00,,,0.00,Wunderground v.1.15,2013-07-15 00:55:00,
2013-07-14 20:00:00,80.4,72.9,30.21,SSE,152,0.0,0.0,78,0.00,,,0.00,Wunderground v.1.15,2013-07-15 01:00:00,
2013-07-14 20:05:00,79.9,73.2,30.20,SSE,152,0.0,0.0,80,0.00,,,0.00,Wunderground v.1.15,2013-07-15 01:05:00,
2013-07-14 20:15:00,79.3,73.0,30.20,SSE,152,0.0,0.0,81,0.00,,,0.00,Wunderground v.1.15,2013-07-15 01:15:00,
2013-07-14 20:20:00,79.0,73.0,30.21,SSE,152,0.0,0.0,82,0.00,,,0.00,Wunderground v.1.15,2013-07-15 01:20:00,
2013-07-14 20:25:00,78.7,72.7,30.21,SSE,152,0.0,0.0,82,0.00,,,0.00,Wunderground v.1.15,2013-07-15 01:25:00,
2013-07-14 20:30:00,78.4,72.8,30.22,SSE,152,0.0,0.0,83,0.00,,,0.00,Wunderground v.1.15,2013-07-15 01:30:00,
2013-07-14 20:40:00,77.9,72.3,30.22,SSE,152,0.0,0.0,83,0.00,,,0.00,Wunderground v.1.15,2013-07-15 01:40:00,
2013-07-14 20:45:00,77.7,72.1,30.22,SSE,152,0.0,0.0,83,0.00,,,0.00,Wunderground v.1.15,2013-07-15 01:45:00,
2013-07-14 20:50:00,77.4,71.8,30.22,SSE,152,0.0,0.0,83,0.00,,,0.00,Wunderground v.1.15,2013-07-15 01:50:00,
2013-07-14 21:00:00,76.7,71.5,30.22,SSE,152,0.0,0.0,84,0.00,,,0.00,Wunderground v.1.15,2013-07-15 02:00:00,
2013-07-14 21:05:00,76.2,71.4,30.22,SSE,152,0.0,0.0,85,0.00,,,0.00,Wunderground v.1.15,2013-07-15 02:05:00,
2013-07-14 21:15:00,75.5,71.0,30.22,SSE,152,0.0,0.0,86,0.00,,,0.00,Wunderground v.1.15,2013-07-15 02:15:00,
2013-07-14 21:20:00,75.2,71.1,30.22,SSE,152,0.0,0.0,87,0.00,,,0.00,Wunderground v.1.15,2013-07-15 02:20:00,
2013-07-14 21:25:00,74.9,70.8,30.23,SSE,152,0.0,0.0,87,0.00,,,0.00,Wunderground v.1.15,2013-07-15 02:25:00,
2013-07-14 21:30:00,74.5,70.7,30.23,SSE,152,0.0,0.0,88,0.00,,,0.00,Wunderground v.1.15,2013-07-15 02:30:00,
2013-07-14 21:35:00,74.1,70.6,30.23,SSE,152,0.0,0.0,89,0.00,,,0.00,Wunderground v.1.15,2013-07-15 02:35:00,
2013-07-14 21:40:00,73.8,70.4,30.23,SSE,152,0.0,0.0,89,0.00,,,0.00,Wunderground v.1.15,2013-07-15 02:40:00,
2013-07-14 21:50:00,73.3,70.5,30.23,SSE,152,0.0,0.0,91,0.00,,,0.00,Wunderground v.1.15,2013-07-15 02:50:00,
2013-07-14 21:55:00,73.1,70.3,30.23,SSE,152,0.0,0.0,91,0.00,,,0.00,Wunderground v.1.15,2013-07-15 02:55:00,
2013-07-14 22:00:00,72.9,70.1,30.23,SSE,152,0.0,0.0,91,0.00,,,0.00,Wunderground v.1.15,2013-07-15 03:00:00,
2013-07-14 22:05:00,72.7,69.9,30.23,SSE,152,0.0,0.0,91,0.00,,,0.00,Wunderground v.1.15,2013-07-15 03:05:00,
2013-07-14 22:15:00,72.5,69.7,30.23,SSE,152,0.0,0.0,91,0.00,,,0.00,Wunderground v.1.15,2013-07-15 03:15:00,
2013-07-14 22:20:00,72.3,69.8,30.24,SSE,152,0.0,0.0,92,0.00,,,0.00,Wunderground v.1.15,2013-07-15 03:20:00,
2013-07-14 22:25:00,72.2,69.7,30.24,SSE,152,0.0,0.0,92,0.00,,,0.00,Wunderground v.1.15,2013-07-15 03:25:00,
2013-07-14 22:30:00,72.1,69.6,30.24,SSE,152,0.0,0.0,92,0.00,,,0.00,Wunderground v.1.15,2013-07-15 03:30:00,
2013-07-14 22:40:00,71.7,69.3,30.24,SSE,152,0.0,0.0,92,0.00,,,0.00,Wunderground v.1.15,2013-07-15 03:40:00,
2013-07-14 22:50:00,71.5,69.4,30.24,SSE,152,0.0,0.0,93,0.00,,,0.00,Wunderground v.1.15,2013-07-15 03:50:00,
2013-07-14 22:55:00,71.3,69.2,30.24,SSE,152,0.0,0.0,93,0.00,,,0.00,Wunderground v.1.15,2013-07-15 03:55:00,
2013-07-14 23:00:00,71.3,69.2,30.24,SSE,152,0.0,0.0,93,0.00,,,0.00,Wunderground v.1.15,2013-07-15 04:00:00,
2013-07-14 23:05:00,71.2,69.1,30.24,SSE,152,0.0,0.0,93,0.00,,,0.00,Wunderground v.1.15,2013-07-15 04:05:00,
2013-07-14 23:15:00,71.1,69.0,30.24,SSE,152,0.0,0.0,93,0.00,,,0.00,Wunderground v.1.15,2013-07-15 04:15:00,
2013-07-14 23:20:00,71.0,68.9,30.25,SSE,152,0.0,0.0,93,0.00,,,0.00,Wunderground v.1.15,2013-07-15 04:20:00,
2013-07-14 23:25:00,70.9,69.1,30.24,SSE,152,0.0,0.0,94,0.00,,,0.00,Wunderground v.1.15,2013-07-15 04:25:00,
2013-07-14 23:30:00,70.8,69.0,30.24,SSE,152,0.0,0.0,94,0.00,,,0.00,Wunderground v.1.15,2013-07-15 04:30:00,
2013-07-14 23:35:00,70.8,69.0,30.24,SSE,152,0.0,0.0,94,0.00,,,0.00,Wunderground v.1.15,2013-07-15 04:35:00,
2013-07-14 23:40:00,70.8,69.0,30.25,SSE,152,0.0,0.0,94,0.00,,,0.00,Wunderground v.1.15,2013-07-15 04:40:00,
2013-07-14 23:45:00,70.8,69.0,30.25,SSE,152,0.0,0.0,94,0.00,,,0.00,Wunderground v.1.15,2013-07-15 04:45:00,
2013-07-14 23:50:00,70.8,69.0,30.25,SSE,152,0.0,0.0,94,0.00,,,0.00,Wunderground v.1.15,2013-07-15 04:50:00,
2013-07-14 23:55:00,70.8,69.0,30.25,SSE,152,0.0,0.0,94,0.00,,,0.00,Wunderground v.1.15,2013-07-15 04:55:00,